createdAt,value
2023-03-29T00:01:36.049Z,99566.64
2023-03-29T00:04:04.777Z,99581.83
2023-03-29T00:06:32.559Z,99579.73
2023-03-29T00:09:01.278Z,99587.82
2023-03-29T00:11:32.012Z,99594.28
2023-03-29T00:13:59.098Z,99590.37
2023-03-29T00:16:26.210Z,99586.34
2023-03-29T00:18:53.458Z,99582.91
2023-03-29T00:21:20.721Z,99588.65
2023-03-29T00:23:47.634Z,99592.52
2023-03-29T00:26:14.463Z,99592.60
2023-03-29T00:28:46.139Z,99595.95
2023-03-29T00:31:14.931Z,99602.05
2023-03-29T00:33:42.047Z,99602.45
2023-03-29T00:36:12.143Z,99603.86
2023-03-29T00:38:41.293Z,99599.54
2023-03-29T00:41:08.484Z,99597.69
2023-03-29T00:44:29.281Z,99600.94
2023-03-29T00:46:56.129Z,99604.42
2023-03-29T00:49:23.060Z,99612.55
2023-03-29T00:51:50.142Z,99611.56
2023-03-29T00:54:19.066Z,99614.15
2023-03-29T00:56:47.620Z,99610.38
2023-03-29T00:59:19.137Z,99612.27
2023-03-29T01:02:01.873Z,99614.62
2023-03-29T01:04:47.501Z,99620.77
2023-03-29T01:07:18.179Z,99630.41
2023-03-29T01:09:51.328Z,99636.08
2023-03-29T01:12:20.770Z,99634.38
2023-03-29T01:14:51.574Z,99639.13
2023-03-29T01:17:21.388Z,99645.28
2023-03-29T01:19:53.330Z,99643.96
2023-03-29T01:22:33.613Z,99647.16
2023-03-29T01:25:03.438Z,99654.77
2023-03-29T01:28:02.692Z,99656.36
2023-03-29T01:30:36.769Z,99660.33
2023-03-29T01:33:12.599Z,99664.79
2023-03-29T01:35:44.977Z,99665.63
2023-03-29T01:38:19.049Z,99671.40
2023-03-29T01:40:46.215Z,99675.19
2023-03-29T01:43:19.406Z,99681.64
2023-03-29T01:46:15.463Z,99691.41
2023-03-29T01:48:54.142Z,99696.00
2023-03-29T01:51:46.371Z,99698.80
2023-03-29T01:54:20.107Z,99697.66
2023-03-29T01:56:48.507Z,99695.66
2023-03-29T01:59:18.267Z,99701.31
2023-03-29T02:01:48.658Z,99706.63
2023-03-29T02:04:20.659Z,99707.17
2023-03-29T02:06:53.651Z,99711.59
2023-03-29T02:09:20.790Z,99713.19
2023-03-29T02:11:47.929Z,99717.30
2023-03-29T02:14:17.624Z,99721.15
2023-03-29T02:16:45.862Z,99725.10
2023-03-29T02:19:12.859Z,99727.98
2023-03-29T02:21:51.235Z,99732.39
2023-03-29T02:24:20.075Z,99736.47
2023-03-29T02:26:56.598Z,99735.54
2023-03-29T02:29:23.643Z,99731.26
2023-03-29T02:31:57.646Z,99729.73
2023-03-29T02:34:38.549Z,99736.54
2023-03-29T02:37:09.901Z,99741.73
2023-03-29T02:39:37.674Z,99740.00
2023-03-29T02:42:05.597Z,99747.16
2023-03-29T02:44:35.997Z,99747.14
2023-03-29T02:47:15.050Z,99745.45
2023-03-29T02:49:42.597Z,99747.61
2023-03-29T02:52:18.887Z,99748.61
2023-03-29T02:54:46.137Z,99749.35
2023-03-29T02:57:21.805Z,99749.48
2023-03-29T02:59:48.936Z,99750.25
2023-03-29T03:02:17.057Z,99749.27
2023-03-29T03:04:44.599Z,99754.75
2023-03-29T03:07:13.581Z,99759.05
2023-03-29T03:09:41.253Z,99762.49
2023-03-29T03:12:10.197Z,99769.98
2023-03-29T03:14:38.067Z,99773.27
2023-03-29T03:17:06.136Z,99775.74
2023-03-29T03:19:38.867Z,99779.59
2023-03-29T03:22:08.343Z,99782.96
2023-03-29T03:24:36.950Z,99782.61
2023-03-29T03:27:04.488Z,99776.71
2023-03-29T03:29:31.776Z,99771.14
2023-03-29T03:32:17.070Z,99782.50
2023-03-29T03:35:05.104Z,99800.94
2023-03-29T03:37:32.105Z,99811.41
2023-03-29T03:39:59.304Z,99818.70
2023-03-29T03:42:30.407Z,99814.77
2023-03-29T03:44:58.188Z,99805.08
2023-03-29T03:47:31.674Z,99794.52
2023-03-29T03:50:08.007Z,99792.42
2023-03-29T03:52:35.737Z,99799.69
2023-03-29T03:55:09.084Z,99799.76
2023-03-29T03:57:47.440Z,99798.88
2023-03-29T04:00:18.650Z,99802.69
2023-03-29T04:02:53.804Z,99811.86
2023-03-29T04:05:22.620Z,99819.62
2023-03-29T04:07:49.579Z,99822.22
2023-03-29T04:10:22.866Z,99823.42
2023-03-29T04:13:10.032Z,99823.03
2023-03-29T04:15:57.191Z,99828.28
2023-03-29T04:18:27.008Z,99830.90
2023-03-29T04:20:57.013Z,99834.12
2023-03-29T04:23:24.632Z,99836.80
2023-03-29T04:25:56.076Z,99834.52
2023-03-29T04:28:37.840Z,99837.90
2023-03-29T04:31:32.668Z,99835.91
2023-03-29T04:34:35.081Z,99834.48
2023-03-29T04:37:09.901Z,99842.45
2023-03-29T04:39:37.292Z,99853.05
2023-03-29T04:42:05.278Z,99858.30
2023-03-29T04:44:36.404Z,99862.87
2023-03-29T04:47:04.824Z,99870.19
2023-03-29T04:49:53.652Z,99864.42
2023-03-29T04:52:32.741Z,99861.94
2023-03-29T04:55:09.814Z,99868.50
2023-03-29T04:58:16.702Z,99876.38
2023-03-29T05:00:45.448Z,99875.95
2023-03-29T05:03:22.076Z,99880.30
2023-03-29T05:05:54.520Z,99885.20
2023-03-29T05:08:21.531Z,99889.67
2023-03-29T05:11:17.742Z,99896.65
2023-03-29T05:13:44.845Z,99893.66
2023-03-29T05:16:15.501Z,99893.17
2023-03-29T05:18:42.823Z,99897.41
2023-03-29T05:21:10.051Z,99899.35
2023-03-29T05:23:39.044Z,99901.08
2023-03-29T05:26:32.003Z,99907.21
2023-03-29T05:29:02.147Z,99914.29
2023-03-29T05:31:29.443Z,99924.98
2023-03-29T05:33:56.570Z,99924.34
2023-03-29T05:36:24.339Z,99923.25
2023-03-29T05:38:51.698Z,99931.40
2023-03-29T05:41:24.410Z,99934.73
2023-03-29T05:44:11.622Z,99942.43
2023-03-29T05:46:42.142Z,99949.61
2023-03-29T05:49:11.715Z,99952.20
2023-03-29T05:52:03.827Z,99952.46
2023-03-29T05:54:50.534Z,99960.60
2023-03-29T05:57:39.969Z,99965.60
2023-03-29T06:00:33.905Z,99970.23
2023-03-29T06:03:52.124Z,99979.10
2023-03-29T06:06:39.385Z,99989.45
2023-03-29T06:17:03.699Z,100018.76
2023-03-29T06:19:38.694Z,100025.52
2023-03-29T06:26:41.574Z,100014.93
2023-03-29T06:29:10.876Z,100010.55
2023-03-29T06:31:47.203Z,100009.77
2023-03-29T06:36:23.404Z,100016.47
2023-03-29T06:39:24.996Z,100014.61
2023-03-29T06:47:35.421Z,100025.30
2023-03-29T06:50:27.109Z,100023.81
2023-03-29T07:15:49.800Z,100064.92
2023-03-29T07:28:49.412Z,100090.34
2023-03-29T07:38:05.057Z,100106.87
2023-03-29T07:44:32.904Z,100114.48
2023-03-29T07:47:54.249Z,100116.23
2023-03-29T07:50:26.032Z,100115.74
2023-03-29T07:53:05.718Z,100119.42
2023-03-29T07:56:09.615Z,100123.68
2023-03-29T07:59:09.638Z,100118.99
2023-03-29T08:01:48.775Z,100118.65
2023-03-29T08:05:26.057Z,100117.30
2023-03-29T08:08:43.287Z,100121.22
2023-03-29T08:23:31.546Z,100121.95
2023-03-29T08:26:20.340Z,100120.98
2023-03-29T08:29:01.410Z,100118.89
2023-03-29T08:31:49.582Z,100125.34
2023-03-29T08:34:20.111Z,100120.96
2023-03-29T08:37:18.424Z,100121.28
2023-03-29T08:39:49.605Z,100125.31
2023-03-29T08:43:00.908Z,100126.16
2023-03-29T08:45:34.924Z,100123.80
2023-03-29T08:48:30.088Z,100127.33
2023-03-29T08:51:30.580Z,100124.59
2023-03-29T08:54:28.574Z,100130.66
2023-03-29T08:57:17.932Z,100126.89
2023-03-29T08:59:52.608Z,100131.48
2023-03-29T09:02:36.808Z,100127.64
2023-03-29T09:05:20.072Z,100139.11
2023-03-29T09:07:58.492Z,100140.80
2023-03-29T09:10:36.162Z,100139.09
2023-03-29T09:13:31.504Z,100143.23
2023-03-29T09:16:24.024Z,100148.09
2023-03-29T09:19:06.106Z,100151.41
2023-03-29T09:21:49.109Z,100155.92
2023-03-29T09:25:09.356Z,100164.38
2023-03-29T09:27:46.856Z,100167.52
2023-03-29T09:30:43.124Z,100173.34
2023-03-29T09:33:56.620Z,100178.46
2023-03-29T09:37:03.235Z,100183.77
2023-03-29T09:39:36.353Z,100183.05
2023-03-29T09:42:09.348Z,100185.20
2023-03-29T09:44:44.659Z,100186.96
2023-03-29T09:47:27.147Z,100195.95
2023-03-29T09:49:57.569Z,100201.85
2023-03-29T09:52:25.630Z,100208.92
2023-03-29T09:55:10.624Z,100213.84
2023-03-29T09:58:07.985Z,100217.13
2023-03-29T10:00:41.146Z,100224.38
2023-03-29T10:03:33.461Z,100229.17
2023-03-29T10:06:10.630Z,100234.89
2023-03-29T10:08:44.380Z,100242.67
2023-03-29T10:11:22.946Z,100245.09
2023-03-29T10:14:07.901Z,100253.02
2023-03-29T10:16:40.744Z,100254.95
2023-03-29T10:19:43.396Z,100262.10
2023-03-29T10:22:25.003Z,100265.04
2023-03-29T10:24:58.392Z,100272.92
2023-03-29T10:27:28.872Z,100277.81
2023-03-29T10:30:07.009Z,100279.46
2023-03-29T10:40:49.053Z,100293.61
2023-03-29T10:44:16.040Z,100298.89
2023-03-29T10:47:40.547Z,100303.52
2023-03-29T10:50:22.396Z,100312.82
2023-03-29T10:53:01.767Z,100313.27
2023-03-29T10:56:33.134Z,100314.49
2023-03-29T10:59:17.699Z,100321.12
2023-03-29T11:05:53.057Z,100330.29
2023-03-29T11:08:57.262Z,100342.70
2023-03-29T11:14:26.273Z,100345.45
2023-03-29T11:17:17.467Z,100349.45
2023-03-29T11:20:33.930Z,100349.50
2023-03-29T11:23:37.125Z,100346.06
2023-03-29T11:26:30.659Z,100346.58
2023-03-29T11:29:16.846Z,100350.42
2023-03-29T11:32:21.619Z,100351.09
2023-03-29T11:36:34.192Z,100358.66
2023-03-29T11:39:39.133Z,100360.64
2023-03-29T11:42:17.379Z,100365.05
2023-03-29T11:44:46.943Z,100368.83
2023-03-29T11:47:36.665Z,100367.82
2023-03-29T11:50:06.091Z,100370.25
2023-03-29T11:52:37.789Z,100371.78
2023-03-29T11:55:07.707Z,100376.94
2023-03-29T11:57:42.235Z,100380.46
2023-03-29T12:00:38.038Z,100379.98
2023-03-29T12:03:14.338Z,100390.02
2023-03-29T12:05:52.118Z,100388.91
2023-03-29T12:08:26.400Z,100395.39
2023-03-29T12:11:24.633Z,100394.20
2023-03-29T12:13:58.532Z,100398.23
2023-03-29T12:16:39.459Z,100401.29
2023-03-29T12:19:21.521Z,100404.51
2023-03-29T12:21:50.546Z,100411.33
2023-03-29T12:24:19.689Z,100415.89
2023-03-29T12:26:59.478Z,100417.99
2023-03-29T12:29:36.014Z,100417.84
2023-03-29T12:33:01.977Z,100416.61
2023-03-29T12:35:56.542Z,100422.27
2023-03-29T12:39:00.959Z,100421.17
2023-03-29T12:41:55.380Z,100423.24
2023-03-29T12:44:50.395Z,100426.89
2023-03-29T12:48:04.237Z,100421.44
2023-03-29T12:51:25.715Z,100428.73
2023-03-29T12:53:54.209Z,100426.08
2023-03-29T12:56:23.156Z,100422.95
2023-03-29T12:59:32.553Z,100423.56
2023-03-29T13:02:13.308Z,100423.73
2023-03-29T13:04:43.484Z,100429.15
2023-03-29T13:07:23.048Z,100430.29
2023-03-29T13:09:57.658Z,100428.79
2023-03-29T13:12:34.647Z,100427.65
2023-03-29T13:15:17.865Z,100426.87
2023-03-29T13:18:03.792Z,100424.67
2023-03-29T13:28:44.996Z,100419.38
2023-03-29T13:36:37.121Z,100424.14
2023-03-29T13:39:19.093Z,100425.03
2023-03-29T13:42:35.558Z,100425.08
2023-03-29T13:45:47.531Z,100426.26
2023-03-29T13:48:33.564Z,100438.60
2023-03-29T13:51:18.732Z,100436.54
2023-03-29T13:54:01.815Z,100434.95
2023-03-29T14:11:36.013Z,100476.08
2023-03-29T14:14:07.766Z,100479.23
2023-03-29T14:16:42.671Z,100481.95
2023-03-29T14:19:18.449Z,100485.00
2023-03-29T14:21:48.215Z,100486.65
2023-03-29T14:24:22.359Z,100482.98
2023-03-29T14:26:51.080Z,100485.40
2023-03-29T14:32:20.620Z,100498.73
2023-03-29T14:34:49.988Z,100496.06
2023-03-29T14:37:23.074Z,100498.19
2023-03-29T14:39:51.344Z,100499.63
2023-03-29T14:42:21.874Z,100494.14
2023-03-29T14:44:55.008Z,100492.34
2023-03-29T14:47:33.407Z,100492.98
2023-03-29T14:50:01.924Z,100496.94
2023-03-29T14:52:31.616Z,100499.03
2023-03-29T14:55:01.056Z,100509.31
2023-03-29T14:57:34.404Z,100515.28
2023-03-29T15:00:38.154Z,100513.83
2023-03-29T15:03:13.822Z,100525.10
2023-03-29T15:05:47.756Z,100536.88
2023-03-29T15:08:31.066Z,100541.22
2023-03-29T15:10:59.583Z,100544.70
2023-03-29T15:13:28.660Z,100548.16
2023-03-29T15:16:00.867Z,100548.13
2023-03-29T15:18:58.713Z,100548.68
2023-03-29T15:21:32.409Z,100542.96
2023-03-29T15:24:04.998Z,100547.20
2023-03-29T15:26:38.535Z,100549.67
2023-03-29T15:29:23.806Z,100553.59
2023-03-29T15:31:59.891Z,100555.79
2023-03-29T15:34:31.591Z,100560.65
2023-03-29T15:37:02.710Z,100565.17
2023-03-29T15:39:32.539Z,100571.73
2023-03-29T15:42:01.467Z,100564.46
2023-03-29T15:44:33.343Z,100567.61
2023-03-29T15:47:01.773Z,100576.05
2023-03-29T15:49:30.432Z,100577.27
2023-03-29T15:51:59.745Z,100585.92
2023-03-29T15:54:29.256Z,100585.67
2023-03-29T15:57:07.402Z,100584.34
2023-03-29T15:59:36.680Z,100588.07
2023-03-29T16:02:06.454Z,100591.44
2023-03-29T16:04:35.130Z,100592.58
2023-03-29T16:07:07.564Z,100596.16
2023-03-29T16:09:38.550Z,100596.09
2023-03-29T16:12:14.248Z,100596.73
2023-03-29T16:15:18.951Z,100595.69
2023-03-29T16:17:47.807Z,100595.66
2023-03-29T16:20:25.121Z,100604.33
2023-03-29T16:22:55.308Z,100608.15
2023-03-29T16:25:24.362Z,100614.17
2023-03-29T16:30:52.399Z,100622.15
2023-03-29T16:34:03.342Z,100617.73
2023-03-29T16:40:58.702Z,100636.34
2023-03-29T16:57:17.540Z,100644.79
2023-03-29T16:59:47.929Z,100647.58
2023-03-29T17:02:24.166Z,100649.48
2023-03-29T17:05:00.572Z,100652.09
2023-03-29T17:07:31.384Z,100653.86
2023-03-29T17:09:59.886Z,100659.05
2023-03-29T17:12:31.308Z,100661.33
2023-03-29T17:14:59.895Z,100670.17
2023-03-29T17:17:32.803Z,100671.16
2023-03-29T17:20:02.677Z,100670.14
2023-03-29T17:22:31.661Z,100679.45
2023-03-29T17:25:00.716Z,100683.23
2023-03-29T17:27:30.860Z,100680.13
2023-03-29T17:30:06.291Z,100679.98
2023-03-29T17:36:24.752Z,100684.40
2023-03-29T17:39:02.876Z,100681.18
2023-03-29T17:41:58.514Z,100679.66
2023-03-29T17:48:43.656Z,100687.79
2023-03-29T17:51:11.660Z,100691.83
2023-03-29T17:53:41.370Z,100694.59
2023-03-29T17:56:13.088Z,100697.14
2023-03-29T17:58:42.710Z,100696.27
2023-03-29T18:01:24.335Z,100700.08
2023-03-29T18:03:55.114Z,100700.63
2023-03-29T18:06:22.846Z,100706.52
2023-03-29T18:08:56.656Z,100707.22
2023-03-29T18:11:25.274Z,100706.70
2023-03-29T18:13:54.868Z,100710.70
2023-03-29T18:16:26.695Z,100713.80
2023-03-29T18:18:57.917Z,100713.95
2023-03-29T18:21:27.115Z,100711.16
2023-03-29T18:23:56.807Z,100712.48
2023-03-29T18:26:24.640Z,100711.25
2023-03-29T18:28:53.999Z,100713.50
2023-03-29T18:31:33.508Z,100715.45
2023-03-29T18:34:00.683Z,100714.63
2023-03-29T18:36:31.786Z,100709.98
2023-03-29T18:39:04.872Z,100707.55
2023-03-29T18:41:37.293Z,100705.33
2023-03-29T18:44:39.711Z,100701.36
2023-03-29T18:47:11.713Z,100700.15
2023-03-29T18:50:06.733Z,100699.52
2023-03-29T18:59:56.632Z,100693.31
2023-03-29T19:02:25.039Z,100698.69
2023-03-29T19:04:52.453Z,100692.34
2023-03-29T19:07:21.531Z,100691.48
2023-03-29T19:09:51.174Z,100689.45
2023-03-29T19:12:18.313Z,100687.61
2023-03-29T19:14:49.525Z,100692.13
2023-03-29T19:17:16.417Z,100698.16
2023-03-29T19:19:43.737Z,100703.30
2023-03-29T19:22:10.632Z,100701.51
2023-03-29T19:24:38.508Z,100706.66
2023-03-29T19:27:12.052Z,100709.20
2023-03-29T19:29:40.647Z,100714.86
2023-03-29T19:32:08.318Z,100710.55
2023-03-29T19:34:36.108Z,100711.79
2023-03-29T19:37:06.457Z,100708.75
2023-03-29T19:39:35.355Z,100707.71
2023-03-29T19:42:11.004Z,100701.58
2023-03-29T19:44:38.096Z,100706.05
2023-03-29T19:47:05.397Z,100703.55
2023-03-29T19:49:36.567Z,100705.23
2023-03-29T19:52:04.165Z,100709.34
2023-03-29T19:54:31.884Z,100709.70
2023-03-29T19:56:59.572Z,100708.67
2023-03-29T19:59:27.545Z,100712.62
2023-03-29T20:02:01.722Z,100714.31
2023-03-29T20:04:36.021Z,100722.42
2023-03-29T20:07:04.113Z,100726.56
2023-03-29T20:09:32.192Z,100725.71
2023-03-29T20:12:03.506Z,100726.21
2023-03-29T20:14:32.048Z,100730.68
2023-03-29T20:16:59.119Z,100727.81
2023-03-29T20:19:26.445Z,100721.48
2023-03-29T20:21:56.789Z,100718.75
2023-03-29T20:24:24.176Z,100719.79
2023-03-29T20:26:51.416Z,100717.38
2023-03-29T20:29:21.657Z,100723.75
2023-03-29T20:31:48.853Z,100728.58
2023-03-29T20:34:18.397Z,100730.81
2023-03-29T20:36:46.404Z,100729.64
2023-03-29T20:39:17.707Z,100730.20
2023-03-29T20:41:46.989Z,100728.36
2023-03-29T20:44:16.481Z,100723.90
2023-03-29T20:47:01.940Z,100723.42
2023-03-29T20:49:36.574Z,100718.12
2023-03-29T20:52:14.935Z,100720.70
2023-03-29T20:54:43.060Z,100723.11
2023-03-29T20:57:13.624Z,100726.52
2023-03-29T20:59:42.375Z,100723.39
2023-03-29T21:02:13.438Z,100723.55
2023-03-29T21:04:44.910Z,100723.42
2023-03-29T21:07:16.935Z,100718.48
2023-03-29T21:09:44.262Z,100716.45
2023-03-29T21:12:12.881Z,100716.83
2023-03-29T21:14:41.029Z,100723.58
2023-03-29T21:17:09.051Z,100724.46
2023-03-29T21:19:38.565Z,100724.45
2023-03-29T21:22:05.646Z,100718.77
2023-03-29T21:24:50.719Z,100720.50
2023-03-29T21:27:17.872Z,100720.84
2023-03-29T21:29:49.019Z,100715.80
2023-03-29T21:32:15.976Z,100722.16
2023-03-29T21:34:43.119Z,100722.15
2023-03-29T21:37:12.268Z,100720.59
2023-03-29T21:39:41.499Z,100723.52
2023-03-29T21:42:08.339Z,100729.08
2023-03-29T21:44:35.369Z,100733.26
2023-03-29T21:47:02.177Z,100733.96
2023-03-29T21:49:29.288Z,100736.06
2023-03-29T21:51:56.366Z,100734.02
2023-03-29T21:54:23.581Z,100734.39
2023-03-29T21:56:50.609Z,100726.63
2023-03-29T21:59:17.528Z,100725.56
2023-03-29T22:01:44.593Z,100723.16
2023-03-29T22:04:14.274Z,100725.36
2023-03-29T22:06:47.418Z,100724.93
2023-03-29T22:09:15.552Z,100728.70
2023-03-29T22:11:44.204Z,100735.27
2023-03-29T22:14:15.768Z,100743.58
2023-03-29T22:16:45.013Z,100746.89
2023-03-29T22:19:12.183Z,100742.44
2023-03-29T22:21:44.191Z,100740.20
2023-03-29T22:24:11.452Z,100741.90
2023-03-29T22:26:39.108Z,100744.85
2023-03-29T22:29:07.800Z,100743.98
2023-03-29T22:31:38.899Z,100738.86
2023-03-29T22:34:05.990Z,100735.44
2023-03-29T22:36:35.562Z,100741.64
2023-03-29T22:39:03.542Z,100746.06
2023-03-29T22:41:31.585Z,100748.98
2023-03-29T22:44:00.671Z,100752.58
2023-03-29T22:46:28.042Z,100752.73
2023-03-29T22:48:55.251Z,100753.57
2023-03-29T22:51:23.168Z,100751.14
2023-03-29T22:53:50.438Z,100754.10
2023-03-29T22:56:17.312Z,100751.91
2023-03-29T22:58:45.205Z,100749.38
2023-03-29T23:01:13.593Z,100748.35
2023-03-29T23:03:40.460Z,100746.97
2023-03-29T23:06:08.409Z,100744.02
2023-03-29T23:08:36.704Z,100736.41
2023-03-29T23:11:08.867Z,100736.77
2023-03-29T23:13:41.213Z,100743.19
2023-03-29T23:16:09.124Z,100741.64
2023-03-29T23:18:37.057Z,100742.16
2023-03-29T23:21:05.274Z,100738.71
2023-03-29T23:23:33.107Z,100735.61
2023-03-29T23:26:09.397Z,100740.80
2023-03-29T23:30:19.924Z,100742.48
2023-03-29T23:32:54.796Z,100751.59
2023-03-29T23:35:23.500Z,100751.36
2023-03-29T23:37:54.387Z,100752.95
2023-03-29T23:40:22.614Z,100752.61
2023-03-29T23:42:51.697Z,100748.30
2023-03-29T23:45:19.912Z,100755.20
2023-03-29T23:47:49.234Z,100757.11
2023-03-29T23:50:19.221Z,100758.85
2023-03-29T23:52:49.616Z,100760.95
2023-03-29T23:55:18.042Z,100754.44
2023-03-29T23:57:49.932Z,100755.82
